createdAt,value
2023-02-17T00:01:34.988Z,37.72
2023-02-17T00:04:07.693Z,26.63
2023-02-17T00:06:43.300Z,26.45
2023-02-17T00:09:15.885Z,22.98
2023-02-17T00:11:49.066Z,26.58
2023-02-17T00:14:23.781Z,27.15
2023-02-17T00:16:56.659Z,25.63
2023-02-17T00:19:29.187Z,30.88
2023-02-17T00:22:02.265Z,28.50
2023-02-17T00:24:37.508Z,31.52
2023-02-17T00:27:10.761Z,21.23
2023-02-17T00:29:43.336Z,29.63
2023-02-17T00:32:16.437Z,25.50
2023-02-17T00:34:49.062Z,23.20
2023-02-17T00:37:22.253Z,26.75
2023-02-17T00:39:54.828Z,24.08
2023-02-17T00:42:27.688Z,31.60
2023-02-17T00:45:05.259Z,29.60
2023-02-17T00:47:38.384Z,28.90
2023-02-17T00:50:10.974Z,36.38
2023-02-17T00:52:43.848Z,31.05
2023-02-17T00:55:16.562Z,26.58
2023-02-17T00:57:49.784Z,29.95
2023-02-17T01:00:23.010Z,25.50
2023-02-17T01:02:55.965Z,25.73
2023-02-17T01:05:29.088Z,30.77
2023-02-17T01:08:01.945Z,45.90
2023-02-17T01:10:36.559Z,40.10
2023-02-17T01:13:09.837Z,31.70
2023-02-17T01:15:44.747Z,23.75
2023-02-17T01:18:21.284Z,36.03
2023-02-17T01:20:56.013Z,37.05
2023-02-17T01:23:29.016Z,41.65
2023-02-17T01:26:01.630Z,38.97
2023-02-17T01:28:36.341Z,25.27
2023-02-17T01:31:09.680Z,22.67
2023-02-17T01:33:43.834Z,28.98
2023-02-17T01:36:17.409Z,26.48
2023-02-17T01:38:50.532Z,26.27
2023-02-17T01:41:27.508Z,31.25
2023-02-17T01:44:20.836Z,19.95
2023-02-17T01:46:54.927Z,28.20
2023-02-17T01:49:37.028Z,25.95
2023-02-17T01:52:25.155Z,29.92
2023-02-17T01:55:03.733Z,35.53
2023-02-17T01:57:38.437Z,29.13
2023-02-17T02:00:12.475Z,25.67
2023-02-17T02:02:46.795Z,27.40
2023-02-17T02:05:21.201Z,32.45
2023-02-17T02:07:54.344Z,24.17
2023-02-17T02:10:27.481Z,24.48
2023-02-17T02:12:59.944Z,17.65
2023-02-17T02:15:40.344Z,27.25
2023-02-17T02:18:27.805Z,31.58
2023-02-17T02:21:21.492Z,34.22
2023-02-17T02:23:54.057Z,25.33
2023-02-17T02:26:45.854Z,41.17
2023-02-17T02:29:28.806Z,28.85
2023-02-17T02:32:20.425Z,31.75
2023-02-17T02:35:16.431Z,27.35
2023-02-17T02:37:56.754Z,24.70
2023-02-17T02:40:31.655Z,31.30
2023-02-17T02:43:05.208Z,33.40
2023-02-17T02:45:37.949Z,26.60
2023-02-17T02:48:10.961Z,34.42
2023-02-17T02:51:05.429Z,37.22
2023-02-17T02:53:41.257Z,33.42
2023-02-17T02:56:17.777Z,25.27
2023-02-17T02:59:03.186Z,28.90
2023-02-17T03:01:44.986Z,26.55
2023-02-17T03:04:21.004Z,32.03
2023-02-17T03:06:57.325Z,32.60
2023-02-17T03:09:31.016Z,23.55
2023-02-17T03:12:03.743Z,20.40
2023-02-17T03:14:38.031Z,30.92
2023-02-17T03:17:10.761Z,29.95
2023-02-17T03:19:46.428Z,29.80
2023-02-17T03:22:30.311Z,26.88
2023-02-17T03:25:03.386Z,27.15
2023-02-17T03:27:35.983Z,34.22
2023-02-17T03:30:09.923Z,28.90
2023-02-17T03:32:43.124Z,30.67
2023-02-17T03:35:16.077Z,37.00
2023-02-17T03:37:48.599Z,30.45
2023-02-17T03:40:21.553Z,21.40
2023-02-17T03:42:54.065Z,29.75
2023-02-17T03:45:26.997Z,26.55
2023-02-17T03:47:59.817Z,24.58
2023-02-17T03:50:32.749Z,33.78
2023-02-17T03:53:05.582Z,24.65
2023-02-17T03:55:38.728Z,31.02
2023-02-17T03:58:11.356Z,26.58
2023-02-17T04:00:44.225Z,21.90
2023-02-17T04:03:16.811Z,25.17
2023-02-17T04:05:49.612Z,25.58
2023-02-17T04:08:22.364Z,17.20
2023-02-17T04:10:56.081Z,23.90
2023-02-17T04:13:28.716Z,23.48
2023-02-17T04:16:02.077Z,25.27
2023-02-17T04:18:35.131Z,25.67
2023-02-17T04:21:08.707Z,22.67
2023-02-17T04:23:41.451Z,25.40
2023-02-17T04:26:14.538Z,23.52
2023-02-17T04:28:47.024Z,34.22
2023-02-17T04:31:20.027Z,24.10
2023-02-17T04:33:52.692Z,24.55
2023-02-17T04:36:25.647Z,24.40
2023-02-17T04:38:58.136Z,22.95
2023-02-17T04:41:31.366Z,27.42
2023-02-17T04:44:03.966Z,30.60
2023-02-17T04:46:46.560Z,33.38
2023-02-17T04:49:19.155Z,25.45
2023-02-17T04:51:52.004Z,31.80
2023-02-17T04:54:24.681Z,30.42
2023-02-17T04:56:57.613Z,29.05
2023-02-17T04:59:30.366Z,32.72
2023-02-17T05:02:03.286Z,33.33
2023-02-17T05:04:36.368Z,32.08
2023-02-17T05:07:09.341Z,29.60
2023-02-17T05:09:41.948Z,51.95
2023-02-17T05:12:14.834Z,48.70
2023-02-17T05:14:50.877Z,46.00
2023-02-17T05:17:23.721Z,35.95
2023-02-17T05:19:56.387Z,48.55
2023-02-17T05:22:29.271Z,45.75
2023-02-17T05:25:01.912Z,30.00
2023-02-17T05:27:34.858Z,48.30
2023-02-17T05:30:08.081Z,58.95
2023-02-17T05:32:41.238Z,44.05
2023-02-17T05:35:14.121Z,38.10
2023-02-17T05:37:47.050Z,22.63
2023-02-17T05:40:19.691Z,34.72
2023-02-17T05:42:52.581Z,30.50
2023-02-17T05:45:25.136Z,34.55
2023-02-17T05:47:58.115Z,35.17
2023-02-17T05:50:30.895Z,35.65
2023-02-17T05:53:08.657Z,34.50
2023-02-17T05:55:41.516Z,30.52
2023-02-17T05:58:14.406Z,24.58
2023-02-17T06:00:47.001Z,24.15
2023-02-17T06:03:19.902Z,31.10
2023-02-17T06:05:52.450Z,20.90
2023-02-17T06:08:25.432Z,27.45
2023-02-17T06:10:58.057Z,33.95
2023-02-17T06:13:31.320Z,30.98
2023-02-17T06:16:04.330Z,22.67
2023-02-17T06:18:37.363Z,22.70
2023-02-17T06:21:09.838Z,29.83
2023-02-17T06:23:42.752Z,32.45
2023-02-17T06:26:15.761Z,21.95
2023-02-17T06:28:48.710Z,25.55
2023-02-17T06:31:21.372Z,28.95
2023-02-17T06:33:54.534Z,43.47
2023-02-17T06:36:27.029Z,33.45
2023-02-17T06:39:00.006Z,26.75
2023-02-17T06:41:32.539Z,23.88
2023-02-17T06:44:05.627Z,34.28
2023-02-17T06:46:38.261Z,25.67
2023-02-17T06:49:11.129Z,25.95
2023-02-17T06:51:43.732Z,22.98
2023-02-17T06:54:16.883Z,23.17
2023-02-17T06:56:49.451Z,27.60
2023-02-17T06:59:22.324Z,20.92
2023-02-17T07:01:54.912Z,28.42
2023-02-17T07:04:28.454Z,24.67
2023-02-17T07:07:01.112Z,37.92
2023-02-17T07:09:34.107Z,20.63
2023-02-17T07:12:06.693Z,34.00
2023-02-17T07:14:39.833Z,28.05
2023-02-17T07:17:12.379Z,30.75
2023-02-17T07:19:45.250Z,27.58
2023-02-17T07:22:17.827Z,18.85
2023-02-17T07:24:50.924Z,27.27
2023-02-17T07:27:23.433Z,19.92
2023-02-17T07:29:56.475Z,26.80
2023-02-17T07:32:29.052Z,19.95
2023-02-17T07:35:02.001Z,28.50
2023-02-17T07:37:34.859Z,23.70
2023-02-17T07:40:08.196Z,37.03
2023-02-17T07:42:41.302Z,21.55
2023-02-17T07:45:14.489Z,28.65
2023-02-17T07:47:47.394Z,28.92
2023-02-17T07:50:20.285Z,33.90
2023-02-17T07:52:52.781Z,29.95
2023-02-17T07:55:25.771Z,34.03
2023-02-17T07:58:00.203Z,124.85
2023-02-17T08:00:33.100Z,161.50
2023-02-17T08:03:05.710Z,64.05
2023-02-17T08:05:39.986Z,39.67
2023-02-17T08:08:30.707Z,33.83
2023-02-17T08:11:21.986Z,26.67
2023-02-17T08:13:55.563Z,39.03
2023-02-17T08:16:29.285Z,38.38
2023-02-17T08:19:02.025Z,39.90
2023-02-17T08:21:35.024Z,22.27
2023-02-17T08:24:07.644Z,29.30
2023-02-17T08:26:40.703Z,29.48
2023-02-17T08:29:13.378Z,28.00
2023-02-17T08:31:46.539Z,27.00
2023-02-17T08:34:19.188Z,37.85
2023-02-17T08:36:52.148Z,33.25
2023-02-17T08:39:24.840Z,24.35
2023-02-17T08:41:57.946Z,20.75
2023-02-17T08:44:31.126Z,33.70
2023-02-17T08:47:05.696Z,30.30
2023-02-17T08:49:38.487Z,25.20
2023-02-17T08:52:11.807Z,27.05
2023-02-17T08:54:44.906Z,26.00
2023-02-17T08:57:19.351Z,50.03
2023-02-17T08:59:51.899Z,28.42
2023-02-17T09:02:24.912Z,28.55
2023-02-17T09:04:57.595Z,21.65
2023-02-17T09:07:30.787Z,37.10
2023-02-17T09:10:05.515Z,28.33
2023-02-17T09:12:38.450Z,27.65
2023-02-17T09:15:11.136Z,24.23
2023-02-17T09:17:44.280Z,31.45
2023-02-17T09:20:24.866Z,30.92
2023-02-17T09:22:58.335Z,30.52
2023-02-17T09:25:31.053Z,20.38
2023-02-17T09:28:04.199Z,26.25
2023-02-17T09:30:37.117Z,32.30
2023-02-17T09:33:10.036Z,26.20
2023-02-17T09:35:42.930Z,25.67
2023-02-17T09:38:16.701Z,28.08
2023-02-17T09:40:50.179Z,29.52
2023-02-17T09:43:26.858Z,25.75
2023-02-17T09:46:02.796Z,25.48
2023-02-17T09:48:36.663Z,28.08
2023-02-17T09:51:14.612Z,33.80
2023-02-17T09:53:52.449Z,31.58
2023-02-17T09:56:31.154Z,21.15
2023-02-17T09:59:14.333Z,32.58
2023-02-17T10:01:47.822Z,28.88
2023-02-17T10:04:26.847Z,24.55
2023-02-17T10:07:06.062Z,22.65
2023-02-17T10:09:59.319Z,27.30
2023-02-17T10:12:37.970Z,22.73
2023-02-17T10:15:18.254Z,28.50
2023-02-17T10:18:09.057Z,19.38
2023-02-17T10:20:51.396Z,22.97
2023-02-17T10:23:25.268Z,20.92
2023-02-17T10:26:13.824Z,20.02
2023-02-17T10:28:52.634Z,24.40
2023-02-17T10:31:45.968Z,24.90
2023-02-17T10:34:30.924Z,30.45
2023-02-17T10:37:24.201Z,22.00
2023-02-17T10:39:58.694Z,23.65
2023-02-17T10:42:34.883Z,22.95
2023-02-17T10:45:18.660Z,29.98
2023-02-17T10:47:56.295Z,23.02
2023-02-17T10:50:28.857Z,18.02
2023-02-17T10:53:02.248Z,15.43
2023-02-17T10:55:39.374Z,18.02
2023-02-17T10:58:24.571Z,19.25
2023-02-17T11:00:57.743Z,17.85
2023-02-17T11:03:32.364Z,13.52
2023-02-17T11:06:07.527Z,12.20
2023-02-17T11:08:44.881Z,22.77
2023-02-17T11:11:17.586Z,14.23
2023-02-17T11:14:05.551Z,15.98
2023-02-17T11:16:40.235Z,18.00
2023-02-17T11:19:24.929Z,16.67
2023-02-17T11:21:59.380Z,20.67
2023-02-17T11:24:33.350Z,13.98
2023-02-17T11:27:10.307Z,13.10
2023-02-17T11:29:43.275Z,8.38
2023-02-17T11:32:15.889Z,7.90
2023-02-17T11:34:56.801Z,6.88
2023-02-17T11:37:32.648Z,7.68
2023-02-17T11:40:17.593Z,7.32
2023-02-17T11:46:00.851Z,5.78
2023-02-17T11:48:33.588Z,7.80
2023-02-17T11:54:27.224Z,7.30
2023-02-17T11:57:04.394Z,5.20
2023-02-17T11:59:45.788Z,3.80
2023-02-17T12:02:26.085Z,5.82
2023-02-17T12:05:13.993Z,5.47
2023-02-17T12:07:52.954Z,5.03
2023-02-17T12:10:45.734Z,3.08
2023-02-17T12:13:27.563Z,5.22
2023-02-17T12:16:06.330Z,5.93
2023-02-17T12:18:59.509Z,14.50
2023-02-17T12:21:32.554Z,8.68
2023-02-17T12:24:05.548Z,11.65
2023-02-17T12:26:46.661Z,5.07
2023-02-17T12:29:41.783Z,4.35
2023-02-17T12:32:27.953Z,4.93
2023-02-17T12:35:04.173Z,7.30
2023-02-17T12:37:42.409Z,4.07
2023-02-17T12:40:34.113Z,5.00
2023-02-17T12:43:29.894Z,5.13
2023-02-17T12:46:05.989Z,3.00
2023-02-17T12:48:41.257Z,5.22
2023-02-17T12:51:25.918Z,4.32
2023-02-17T12:54:13.684Z,5.78
2023-02-17T12:57:01.775Z,6.97
2023-02-17T12:59:35.877Z,5.93
2023-02-17T13:02:12.248Z,5.57
2023-02-17T13:04:46.075Z,7.07
2023-02-17T13:07:37.287Z,8.52
2023-02-17T13:10:28.828Z,6.65
2023-02-17T13:13:14.520Z,4.72
2023-02-17T13:15:47.353Z,5.18
2023-02-17T13:18:28.559Z,3.97
2023-02-17T13:21:20.664Z,5.33
2023-02-17T13:24:01.718Z,5.93
2023-02-17T13:26:38.123Z,13.23
2023-02-17T13:29:11.093Z,7.28
2023-02-17T13:31:51.704Z,5.22
2023-02-17T13:34:26.073Z,7.88
2023-02-17T13:37:00.768Z,9.18
2023-02-17T13:39:35.489Z,7.15
2023-02-17T13:42:27.970Z,8.57
2023-02-17T13:45:01.097Z,6.68
2023-02-17T13:47:37.950Z,6.72
2023-02-17T13:50:33.936Z,11.07
2023-02-17T13:53:25.309Z,9.55
2023-02-17T13:56:00.052Z,8.10
2023-02-17T13:58:36.746Z,9.98
2023-02-17T14:01:15.113Z,7.38
2023-02-17T14:03:51.086Z,7.88
2023-02-17T14:06:42.001Z,6.72
2023-02-17T14:09:25.586Z,6.93
2023-02-17T14:11:59.254Z,9.73
2023-02-17T14:14:33.274Z,4.95
2023-02-17T14:17:15.307Z,12.02
2023-02-17T14:19:49.016Z,13.15
2023-02-17T14:22:29.085Z,10.02
2023-02-17T14:25:05.803Z,11.60
2023-02-17T14:27:43.034Z,5.80
2023-02-17T14:30:36.244Z,9.77
2023-02-17T14:33:09.444Z,10.20
2023-02-17T14:35:50.811Z,13.77
2023-02-17T14:38:28.131Z,7.10
2023-02-17T14:41:01.455Z,8.63
2023-02-17T14:43:34.576Z,10.48
2023-02-17T14:46:07.379Z,8.93
2023-02-17T14:48:40.439Z,10.88
2023-02-17T14:51:13.717Z,14.05
2023-02-17T14:53:47.148Z,6.78
2023-02-17T14:56:28.301Z,8.00
2023-02-17T14:59:01.272Z,7.90
2023-02-17T15:01:33.930Z,13.38
2023-02-17T15:04:07.261Z,7.30
2023-02-17T15:06:41.810Z,7.47
2023-02-17T15:09:18.714Z,7.57
2023-02-17T15:11:51.303Z,14.77
2023-02-17T15:14:24.596Z,6.70
2023-02-17T15:16:57.232Z,11.52
2023-02-17T15:19:30.184Z,8.23
2023-02-17T15:22:03.906Z,7.70
2023-02-17T15:24:36.982Z,12.48
2023-02-17T15:27:14.262Z,7.18
2023-02-17T15:29:47.432Z,9.05
2023-02-17T15:32:20.100Z,4.38
2023-02-17T15:34:53.271Z,7.72
2023-02-17T15:37:25.836Z,6.90
2023-02-17T15:39:58.687Z,5.95
2023-02-17T15:42:31.442Z,6.22
2023-02-17T15:45:04.633Z,5.82
2023-02-17T15:47:37.461Z,7.07
2023-02-17T15:50:19.202Z,5.47
2023-02-17T15:52:52.773Z,8.15
2023-02-17T15:55:26.455Z,8.32
2023-02-17T15:58:02.316Z,6.72
2023-02-17T16:00:35.944Z,13.57
2023-02-17T16:03:10.446Z,12.40
2023-02-17T16:05:43.534Z,5.30
2023-02-17T16:08:16.020Z,5.80
2023-02-17T16:10:50.540Z,6.43
2023-02-17T16:13:24.721Z,4.22
2023-02-17T16:15:58.650Z,7.85
2023-02-17T16:18:32.185Z,5.28
2023-02-17T16:21:05.346Z,6.28
2023-02-17T16:23:38.009Z,5.28
2023-02-17T16:26:25.945Z,4.80
2023-02-17T16:28:58.876Z,7.78
2023-02-17T16:31:33.270Z,5.53
2023-02-17T16:34:05.834Z,3.90
2023-02-17T16:36:39.481Z,13.57
2023-02-17T16:39:13.621Z,10.23
2023-02-17T16:41:47.357Z,7.40
2023-02-17T16:44:21.035Z,7.43
2023-02-17T16:46:55.394Z,6.13
2023-02-17T16:49:32.870Z,8.68
2023-02-17T16:52:08.305Z,7.00
2023-02-17T16:54:40.763Z,4.10
2023-02-17T16:57:18.608Z,3.53
2023-02-17T16:59:51.188Z,6.22
2023-02-17T17:02:24.107Z,6.05
2023-02-17T17:04:57.126Z,8.15
2023-02-17T17:07:31.537Z,7.47
2023-02-17T17:10:16.241Z,7.45
2023-02-17T17:12:49.908Z,9.30
2023-02-17T17:15:22.656Z,7.65
2023-02-17T17:18:00.015Z,7.97
2023-02-17T17:20:34.724Z,10.18
2023-02-17T17:23:09.572Z,15.35
2023-02-17T17:25:43.868Z,6.82
2023-02-17T17:28:18.988Z,10.15
2023-02-17T17:30:51.557Z,12.60
2023-02-17T17:33:24.870Z,8.50
2023-02-17T17:35:57.404Z,7.88
2023-02-17T17:38:30.295Z,5.80
2023-02-17T17:41:02.886Z,8.13
2023-02-17T17:43:35.819Z,9.40
2023-02-17T17:46:15.945Z,8.63
2023-02-17T17:48:48.916Z,5.13
2023-02-17T17:51:22.525Z,9.20
2023-02-17T17:53:55.840Z,8.57
2023-02-17T17:56:29.907Z,8.10
2023-02-17T17:59:03.542Z,24.15
2023-02-17T18:01:36.181Z,18.77
2023-02-17T18:04:09.783Z,21.23
2023-02-17T18:06:44.517Z,34.00
2023-02-17T18:09:31.198Z,29.92
2023-02-17T18:12:11.417Z,26.55
2023-02-17T18:14:44.860Z,14.18
2023-02-17T18:17:18.545Z,27.95
2023-02-17T18:19:55.238Z,20.10
2023-02-17T18:22:27.852Z,29.98
2023-02-17T18:25:00.772Z,30.60
2023-02-17T18:27:40.660Z,24.13
2023-02-17T18:30:15.396Z,16.67
2023-02-17T18:32:48.389Z,13.48
2023-02-17T18:35:21.589Z,12.98
2023-02-17T18:37:54.202Z,18.02
2023-02-17T18:40:29.412Z,21.95
2023-02-17T18:43:02.057Z,15.40
2023-02-17T18:45:35.530Z,21.52
2023-02-17T18:48:08.094Z,16.48
2023-02-17T18:50:40.957Z,22.92
2023-02-17T18:53:13.462Z,21.77
2023-02-17T18:55:46.576Z,18.92
2023-02-17T18:58:19.198Z,15.82
2023-02-17T19:00:52.110Z,22.77
2023-02-17T19:03:24.724Z,18.45
2023-02-17T19:05:57.633Z,17.67
2023-02-17T19:08:30.345Z,14.45
2023-02-17T19:11:03.355Z,10.43
2023-02-17T19:13:36.136Z,15.68
2023-02-17T19:16:10.906Z,7.72
2023-02-17T19:18:44.261Z,6.65
2023-02-17T19:21:17.221Z,13.85
2023-02-17T19:23:50.559Z,17.20
2023-02-17T19:26:23.803Z,7.93
2023-02-17T19:28:56.674Z,10.75
2023-02-17T19:31:29.746Z,10.90
2023-02-17T19:34:02.602Z,18.08
2023-02-17T19:36:35.858Z,19.65
2023-02-17T19:39:08.355Z,29.48
2023-02-17T19:41:41.352Z,15.82
2023-02-17T19:44:14.175Z,24.77
2023-02-17T19:46:47.365Z,13.52
2023-02-17T19:49:19.935Z,5.82
2023-02-17T19:51:55.226Z,15.00
2023-02-17T19:54:27.780Z,7.43
2023-02-17T19:57:02.103Z,14.43
2023-02-17T19:59:34.618Z,11.77
2023-02-17T20:02:08.367Z,9.07
2023-02-17T20:04:41.066Z,6.57
2023-02-17T20:07:14.037Z,9.65
2023-02-17T20:09:46.637Z,10.68
2023-02-17T20:12:19.709Z,12.88
2023-02-17T20:14:55.239Z,10.45
2023-02-17T20:17:28.056Z,6.93
2023-02-17T20:20:00.617Z,4.85
2023-02-17T20:22:33.535Z,5.18
2023-02-17T20:25:06.313Z,18.63
2023-02-17T20:27:39.213Z,35.88
2023-02-17T20:30:12.054Z,15.15
2023-02-17T20:32:45.000Z,8.85
2023-02-17T20:35:17.742Z,9.73
2023-02-17T20:37:50.701Z,16.15
2023-02-17T20:40:23.225Z,8.10
2023-02-17T20:42:56.110Z,11.93
2023-02-17T20:45:28.756Z,8.38
2023-02-17T20:48:01.815Z,11.38
2023-02-17T20:50:34.495Z,7.82
2023-02-17T20:53:07.429Z,6.15
2023-02-17T20:55:40.165Z,6.80
2023-02-17T20:58:13.201Z,10.95
2023-02-17T21:00:46.130Z,7.50
2023-02-17T21:03:19.144Z,10.52
2023-02-17T21:05:51.731Z,7.55
2023-02-17T21:08:24.974Z,5.65
2023-02-17T21:10:57.515Z,3.47
2023-02-17T21:13:30.899Z,7.60
2023-02-17T21:16:03.543Z,3.88
2023-02-17T21:18:36.587Z,3.38
2023-02-17T21:21:09.138Z,4.38
2023-02-17T21:23:42.448Z,5.35
2023-02-17T21:26:15.417Z,2.72
2023-02-17T21:28:48.440Z,6.80
2023-02-17T21:31:21.457Z,6.20
2023-02-17T21:33:54.610Z,5.82
2023-02-17T21:36:29.201Z,2.95
2023-02-17T21:39:04.135Z,8.85
2023-02-17T21:41:36.759Z,11.30
2023-02-17T21:44:31.228Z,6.18
2023-02-17T21:47:04.107Z,11.57
2023-02-17T21:49:36.971Z,20.15
2023-02-17T21:52:09.548Z,15.75
2023-02-17T21:54:42.568Z,13.20
2023-02-17T21:57:15.093Z,12.77
2023-02-17T21:59:48.260Z,20.30
2023-02-17T22:02:20.810Z,14.38
2023-02-17T22:04:57.186Z,7.82
2023-02-17T22:07:29.770Z,12.85
2023-02-17T22:10:02.924Z,19.80
2023-02-17T22:12:36.447Z,7.38
2023-02-17T22:15:11.171Z,11.52
2023-02-17T22:17:43.891Z,7.88
2023-02-17T22:20:16.881Z,8.55
2023-02-17T22:22:49.390Z,34.13
2023-02-17T22:25:23.165Z,34.92
2023-02-17T22:27:55.704Z,14.25
2023-02-17T22:30:28.911Z,17.77
2023-02-17T22:33:01.404Z,7.85
2023-02-17T22:35:34.338Z,18.95
2023-02-17T22:38:06.949Z,20.63
2023-02-17T22:40:41.036Z,15.88
2023-02-17T22:43:13.513Z,22.20
2023-02-17T22:45:46.726Z,11.43
2023-02-17T22:48:19.242Z,21.48
2023-02-17T22:50:52.132Z,21.95
2023-02-17T22:53:24.630Z,10.27
2023-02-17T22:55:58.400Z,18.30
2023-02-17T22:58:31.185Z,13.80
2023-02-17T23:01:05.073Z,6.55
2023-02-17T23:03:38.460Z,9.05
2023-02-17T23:06:13.266Z,19.42
2023-02-17T23:08:46.538Z,12.88
2023-02-17T23:11:40.714Z,13.63
2023-02-17T23:14:14.712Z,2.17
2023-02-17T23:16:47.999Z,3.60
2023-02-17T23:19:21.855Z,3.47
2023-02-17T23:21:56.499Z,5.05
2023-02-17T23:24:29.129Z,8.82
2023-02-17T23:27:02.108Z,5.28
2023-02-17T23:29:34.644Z,4.40
2023-02-17T23:32:07.795Z,1.88
2023-02-17T23:34:40.602Z,2.97
2023-02-17T23:37:13.539Z,2.28
2023-02-17T23:39:46.008Z,2.08
2023-02-17T23:42:18.827Z,4.32
2023-02-17T23:44:51.445Z,1.77
2023-02-17T23:47:24.429Z,2.78
2023-02-17T23:49:57.002Z,2.17
2023-02-17T23:52:29.916Z,2.63
2023-02-17T23:55:02.534Z,2.65
2023-02-17T23:57:41.126Z,1.00
